Time;durP1;ratioP1;P1;durP2;ratioP2;P2;SDS_P1;SDS_P2;PMS_P1;PMS_P2;Temp;Humidity;BMP_temperature;BMP_pressure;BME280_temperature;BME280_humidity;BME280_pressure;Samples;Min_cycle;Max_cycle;Signal;HPM_P1;HPM_P2
2022/05/27 03:25:29;;;;;;;;;;;;;;;14.65;67.16;100335.50;1087555;54;21045;-80
2022/05/27 03:37:43;;;;;;;;;;;;;;;14.38;68.41;100334.78;1086669;54;19942;31
2022/05/27 03:39:59;;;;;;;;;;;;;;;14.38;68.79;100340.16;1088537;54;19947;-84
2022/05/27 03:41:05;;;;;;;;;;;;;;;14.33;68.75;100332.56;1090064;39;20680;-83
2022/05/27 03:42:10;;;;;;;;;;;;;;;14.36;68.86;100347.53;1088319;54;19941;-83
2022/05/27 03:52:35;;;;;;;;;;;;;;;14.14;69.71;100333.69;1087853;54;19926;-82
2022/05/27 04:23:06;;;;;;;;;;;;;;;14.42;69.76;100336.16;1088506;54;19942;-84
2022/05/27 08:05:17;;;;;;;;;;;;;;;16.30;63.54;100394.78;1087789;54;19949;-81
2022/05/27 08:06:18;;;;;;;;;;;;;;;16.26;63.28;100390.75;1087740;54;19938;-78
2022/05/27 08:07:23;;;;;;;;;;;;;;;16.26;63.48;100393.44;1087484;54;19943;-79
2022/05/27 08:08:30;;;;;;;;;;;;;;;16.29;63.08;100400.38;1087958;54;19950;-78
2022/05/27 08:09:38;;;;;;;;;;;;;;;16.28;63.17;100396.81;1087953;54;19935;-79
2022/05/27 08:11:14;;;;;;;;;;;;;;;16.33;63.37;100402.53;1088016;54;19968;-78
2022/05/27 08:12:16;;;;;;;;;;;;;;;16.18;63.43;100405.13;1088374;54;19949;-78
2022/05/27 08:13:21;;;;;;;;;;;;;;;16.17;63.56;100398.03;1095442;39;20737;-78
2022/05/27 08:14:24;;;;;;;;;;;;;;;16.15;63.49;100393.84;1089018;46;19978;-81
2022/05/27 08:15:29;;;;;;;;;;;;;;;16.25;63.27;100401.72;1088272;54;19942;-78
2022/05/27 08:16:34;;;;;;;;;;;;;;;16.40;62.84;100394.56;1088917;46;19927;-79
2022/05/27 08:17:38;;;;;;;;;;;;;;;16.31;62.91;100396.47;1088366;54;19943;-82
2022/05/27 08:18:43;;;;;;;;;;;;;;;16.40;62.64;100399.13;1088358;54;19942;-80
2022/05/27 08:19:44;;;;;;;;;;;;;;;16.37;62.64;100401.16;1088310;54;19946;-79
2022/05/27 08:20:52;;;;;;;;;;;;;;;16.28;63.23;100396.81;1088354;54;19942;-78
2022/05/27 08:21:53;;;;;;;;;;;;;;;16.36;63.17;100395.94;1088271;54;19942;-77
2022/05/27 08:23:00;;;;;;;;;;;;;;;16.26;63.28;100400.69;1087896;54;19942;-81
2022/05/27 08:24:07;;;;;;;;;;;;;;;16.19;63.25;100397.84;1089296;39;20598;-79
2022/05/27 08:25:12;;;;;;;;;;;;;;;16.27;63.24;100397.81;1088347;54;19950;-80
2022/05/27 08:26:16;;;;;;;;;;;;;;;16.22;63.15;100392.13;1088411;46;19967;-80
2022/05/27 08:27:21;;;;;;;;;;;;;;;16.22;63.31;100392.13;1088237;54;19942;-77
2022/05/27 08:28:28;;;;;;;;;;;;;;;16.23;63.57;100399.19;1088390;54;19938;-79
2022/05/27 08:29:30;;;;;;;;;;;;;;;16.20;63.33;100399.53;1088309;54;19942;-78
2022/05/27 08:30:35;;;;;;;;;;;;;;;16.21;63.40;100401.22;1088268;54;20020;-77
2022/05/27 08:31:36;;;;;;;;;;;;;;;16.23;63.84;100404.59;1088356;54;19935;-80
2022/05/27 08:32:42;;;;;;;;;;;;;;;16.34;63.57;100404.19;1088238;54;20774;-79
2022/05/27 08:38:56;;;;;;;;;;;;;;;16.31;62.76;100396.47;1087758;54;19986;-78
2022/05/27 08:40:01;;;;;;;;;;;;;;;16.50;62.82;100403.31;1087890;54;19942;-79
2022/05/27 08:41:14;;;;;;;;;;;;;;;16.65;61.89;100399.88;1088106;54;19943;-77
2022/05/27 08:42:23;;;;;;;;;;;;;;;16.56;61.98;100400.94;1088334;54;19967;-78
2022/05/27 08:43:32;;;;;;;;;;;;;;;16.58;61.96;100407.84;1088388;54;20011;-78
2022/05/27 08:44:43;;;;;;;;;;;;;;;16.50;61.89;100394.38;1088235;54;19967;-76
2022/05/27 08:45:53;;;;;;;;;;;;;;;16.51;62.22;100396.88;1088336;54;19942;-76
2022/05/27 08:54:33;;;;;;;;;;;;;;;16.51;61.35;100396.06;1087906;54;19939;-79
2022/05/27 08:59:52;;;;;;;;;;;;;;;16.75;61.31;100391.56;1088240;54;19946;-79
2022/05/27 09:00:55;;;;;;;;;;;;;;;16.65;61.42;100391.78;1088253;54;19942;-78
2022/05/27 09:02:02;;;;;;;;;;;;;;;16.55;61.49;100391.16;1088282;54;20025;-79
2022/05/27 09:03:09;;;;;;;;;;;;;;;16.68;61.04;100399.50;1088206;54;19945;-78
2022/05/27 09:04:14;;;;;;;;;;;;;;;16.69;61.25;100393.09;1088199;54;19966;-80
2022/05/27 09:05:23;;;;;;;;;;;;;;;16.73;61.21;100397.13;1088171;54;19943;-78
2022/05/27 09:06:28;;;;;;;;;;;;;;;16.73;60.67;100398.97;1088249;54;19943;-78
2022/05/27 09:07:35;;;;;;;;;;;;;;;16.78;60.98;100393.91;1088332;54;19943;-79
2022/05/27 09:08:38;;;;;;;;;;;;;;;16.85;60.41;100400.28;1088237;54;19939;-77
2022/05/27 09:09:43;;;;;;;;;;;;;;;16.93;60.46;100391.28;1088114;54;19942;-78
2022/05/27 09:10:58;;;;;;;;;;;;;;;16.94;60.18;100393.00;1088387;47;19949;-80
2022/05/27 09:12:21;;;;;;;;;;;;;;;16.89;60.09;100388.13;1088259;54;19943;-80
2022/05/27 09:13:30;;;;;;;;;;;;;;;16.80;60.33;100395.41;1088203;39;20650;-79
2022/05/27 09:14:33;;;;;;;;;;;;;;;16.86;60.06;100387.63;1088261;54;19965;-78
2022/05/27 09:15:42;;;;;;;;;;;;;;;16.85;60.08;100392.16;1088172;54;19942;-79
2022/05/27 09:18:08;;;;;;;;;;;;;;;16.85;59.96;100392.16;1087295;54;19969;-80
2022/05/27 09:19:20;;;;;;;;;;;;;;;16.78;59.95;100385.81;1088279;54;19967;-82
2022/05/27 09:20:34;;;;;;;;;;;;;;;16.88;60.05;100385.56;1088188;54;19934;-81
2022/05/27 09:21:42;;;;;;;;;;;;;;;16.83;60.12;100378.00;1088269;54;19927;-82
2022/05/27 09:22:54;;;;;;;;;;;;;;;16.78;60.01;100380.41;1088216;54;19938;-80
2022/05/27 09:24:06;;;;;;;;;;;;;;;16.88;59.83;100380.16;1088228;54;20021;-79
2022/05/27 09:25:15;;;;;;;;;;;;;;;16.88;59.91;100380.16;1090208;46;19954;-80
2022/05/27 09:26:28;;;;;;;;;;;;;;;16.88;59.96;100374.78;1089410;46;19943;-79
2022/05/27 09:27:37;;;;;;;;;;;;;;;16.95;59.45;100376.63;1088122;54;19938;-79
2022/05/27 09:28:45;;;;;;;;;;;;;;;16.92;59.96;100382.34;1090286;46;19942;-79
2022/05/27 09:30:00;;;;;;;;;;;;;;;16.94;59.89;100383.03;1087931;47;20007;-79
2022/05/27 09:31:07;;;;;;;;;;;;;;;16.91;59.88;100383.34;1087796;54;19954;-79
2022/05/27 09:32:13;;;;;;;;;;;;;;;16.88;60.09;100369.38;1090781;46;19943;-79
2022/05/27 09:33:20;;;;;;;;;;;;;;;16.93;59.99;100373.25;1087921;54;19947;-79
2022/05/27 09:34:27;;;;;;;;;;;;;;;17.17;59.42;100366.00;1087180;54;20424;-78
2022/05/27 09:35:34;;;;;;;;;;;;;;;17.11;59.74;100377.50;1087907;54;19946;-78
2022/05/27 09:36:38;;;;;;;;;;;;;;;17.08;59.52;100359.00;1087881;54;20014;-81
2022/05/27 09:37:46;;;;;;;;;;;;;;;17.19;59.72;100365.81;1087430;54;19943;-79
2022/05/27 09:38:48;;;;;;;;;;;;;;;17.18;59.69;100370.41;1087813;54;19950;-79
2022/05/27 09:39:53;;;;;;;;;;;;;;;17.40;58.91;100375.94;1087481;54;19954;-79
2022/05/27 09:40:57;;;;;;;;;;;;;;;17.25;59.48;100367.78;1087808;54;20499;-79
2022/05/27 09:42:12;;;;;;;;;;;;;;;17.40;59.04;100373.25;1087809;54;19950;-79
2022/05/27 09:43:20;;;;;;;;;;;;;;;17.41;59.30;100369.53;1088055;54;19951;-80
2022/05/27 09:44:27;;;;;;;;;;;;;;;17.39;59.30;100366.16;1087753;54;19990;-79
2022/05/27 09:45:32;;;;;;;;;;;;;;;17.38;59.46;100367.22;1087655;54;19973;-78
2022/05/27 09:46:37;;;;;;;;;;;;;;;17.51;59.38;100369.28;1087148;54;19963;-78
2022/05/27 09:47:41;;;;;;;;;;;;;;;17.61;59.11;100370.69;1087208;47;20034;-79
2022/05/27 09:48:44;;;;;;;;;;;;;;;17.66;59.07;100366.63;1087978;54;20058;-78
2022/05/27 09:49:51;;;;;;;;;;;;;;;17.61;58.82;100370.69;1088109;54;19974;-80
2022/05/27 09:50:54;;;;;;;;;;;;;;;17.71;58.99;100366.91;1087989;54;19967;-79
2022/05/27 09:52:09;;;;;;;;;;;;;;;;;;;;;
2022/05/27 09:53:18;;;;;;;;;;;;;;;17.61;58.69;100370.69;1087992;54;19962;-80
2022/05/27 09:54:27;;;;;;;;;;;;;;;17.51;58.67;100364.72;1087907;54;19954;-79
2022/05/27 09:55:38;;;;;;;;;;;;;;;17.55;58.43;100366.03;1087942;54;20016;-78
2022/05/27 09:56:43;;;;;;;;;;;;;;;17.69;58.16;100363.53;1087999;54;20582;-79
2022/05/27 09:58:01;;;;;;;;;;;;;;;17.74;57.72;100363.84;1087273;54;19953;-79
2022/05/27 09:59:21;;;;;;;;;;;;;;;17.84;57.79;100361.72;1087266;54;19962;-78
2022/05/27 10:00:36;;;;;;;;;;;;;;;17.77;58.39;100366.16;1087611;54;20479;-79
2022/05/27 10:01:41;;;;;;;;;;;;;;;17.84;58.05;100360.84;1087525;54;19962;-80
2022/05/27 10:02:45;;;;;;;;;;;;;;;17.75;58.79;100371.75;1087058;54;19950;-80
2022/05/27 10:03:49;;;;;;;;;;;;;;;17.71;58.64;100364.19;1089277;39;20646;-80
2022/05/27 10:04:54;;;;;;;;;;;;;;;17.59;58.10;100366.50;1087936;54;19934;-79
2022/05/27 10:05:58;;;;;;;;;;;;;;;17.70;57.98;100379.59;1087956;54;19950;-78
2022/05/27 10:07:07;;;;;;;;;;;;;;;17.52;57.90;100370.97;1088012;54;19938;-79
2022/05/27 10:08:08;;;;;;;;;;;;;;;17.50;58.11;100373.00;1088018;54;19996;-79
2022/05/27 10:09:27;;;;;;;;;;;;;;;17.45;58.01;100365.44;1087895;54;19947;-79
2022/05/27 10:10:31;;;;;;;;;;;;;;;17.44;57.44;100370.00;1088053;54;19938;-78
2022/05/27 10:11:37;;;;;;;;;;;;;;;17.42;57.54;100366.66;1088095;54;19931;-78
2022/05/27 10:12:40;;;;;;;;;;;;;;;17.51;57.80;100372.81;1088074;54;19927;-78
2022/05/27 10:13:47;;;;;;;;;;;;;;;17.55;57.51;100363.34;1088191;54;19933;-80
2022/05/27 10:14:50;;;;;;;;;;;;;;;17.51;57.55;100370.13;1088073;54;19950;-78
2022/05/27 10:16:05;;;;;;;;;;;;;;;17.67;57.48;100360.16;1087740;54;19995;-79
2022/05/27 10:17:11;;;;;;;;;;;;;;;17.70;57.47;100362.50;1087705;54;19949;-79
2022/05/27 10:18:17;;;;;;;;;;;;;;;17.78;57.44;100359.72;1087442;54;19985;-79
2022/05/27 10:19:25;;;;;;;;;;;;;;;17.79;57.46;100358.69;1087427;54;20086;-79
2022/05/27 10:20:30;;;;;;;;;;;;;;;17.83;57.19;100351.91;1087487;54;20042;-79
2022/05/27 10:21:36;;;;;;;;;;;;;;;17.91;56.75;100353.66;1088037;54;20489;-79
2022/05/27 10:22:39;;;;;;;;;;;;;;;17.87;56.53;100349.69;1087798;54;19938;-79
2022/05/27 10:23:45;;;;;;;;;;;;;;;18.02;56.22;100345.13;1089002;47;20457;-81
2022/05/27 10:24:59;;;;;;;;;;;;;;;18.05;55.95;100350.19;1087562;54;19939;-81
2022/05/27 10:26:20;;;;;;;;;;;;;;;18.01;56.17;100351.56;1087682;54;20602;-80
2022/05/27 10:27:29;;;;;;;;;;;;;;;18.08;56.22;100339.00;1087073;54;19977;-79
2022/05/27 10:28:34;;;;;;;;;;;;;;;18.32;55.90;100338.88;1088179;54;19959;-79
2022/05/27 10:29:52;;;;;;;;;;;;;;;18.46;55.47;100346.13;1088149;47;19957;-81
2022/05/27 10:30:58;;;;;;;;;;;;;;;18.33;56.32;100335.13;1087399;54;19946;-80
2022/05/27 10:32:01;;;;;;;;;;;;;;;18.33;55.96;100338.69;1087897;54;19927;-81
2022/05/27 10:33:23;;;;;;;;;;;;;;;18.38;55.77;100343.53;1092142;39;20388;-81
2022/05/27 10:34:39;;;;;;;;;;;;;;;18.48;55.47;100330.53;1087793;54;19954;-79
2022/05/27 10:35:44;;;;;;;;;;;;;;;18.65;55.24;100333.88;1090747;39;20435;-79
2022/05/27 10:36:54;;;;;;;;;;;;;;;18.66;54.93;100329.28;1087390;54;19942;-79
2022/05/27 10:38:07;;;;;;;;;;;;;;;18.62;55.23;100326.13;1087945;54;19927;-80
2022/05/27 10:39:12;;;;;;;;;;;;;;;18.55;55.00;100328.75;1088125;54;19943;-80
2022/05/27 10:40:26;;;;;;;;;;;;;;;18.48;55.03;100329.69;1087996;54;19933;-80
2022/05/27 10:41:35;;;;;;;;;;;;;;;18.40;55.35;100327.94;1087871;54;19949;-79
2022/05/27 10:42:44;;;;;;;;;;;;;;;18.28;55.36;100329.44;1088100;54;19949;-79
2022/05/27 10:43:54;;;;;;;;;;;;;;;18.28;55.63;100332.97;1087990;54;19938;-80
2022/05/27 10:45:10;;;;;;;;;;;;;;;18.38;55.40;100336.22;1087916;54;19964;-79
2022/05/27 10:46:19;;;;;;;;;;;;;;;18.37;54.77;100337.25;1088095;54;20003;-78
2022/05/27 10:47:28;;;;;;;;;;;;;;;18.35;54.76;100327.66;1088266;54;19948;-79
2022/05/27 10:48:40;;;;;;;;;;;;;;;18.43;54.31;100332.97;1088120;54;19953;-79
2022/05/27 10:49:52;;;;;;;;;;;;;;;18.55;54.14;100326.03;1088073;54;19965;-79
2022/05/27 10:51:00;;;;;;;;;;;;;;;18.57;53.95;100325.84;1088117;54;19938;-79
2022/05/27 10:52:11;;;;;;;;;;;;;;;18.47;54.11;100325.28;1088047;54;19966;-79
2022/05/27 10:53:22;;;;;;;;;;;;;;;18.45;53.96;100322.78;1087898;54;19943;-79
2022/05/27 10:54:33;;;;;;;;;;;;;;;18.50;53.80;100319.50;1087619;54;19951;-79
2022/05/27 10:55:44;;;;;;;;;;;;;;;18.65;53.62;100319.47;1087761;54;19964;-78
2022/05/27 11:02:39;;;;;;;;;;;;;;;18.93;52.24;100307.91;1088429;54;20481;-79
2022/05/27 11:03:57;;;;;;;;;;;;;;;18.99;51.70;100312.56;1088277;54;21022;-78
2022/05/27 11:05:11;;;;;;;;;;;;;;;19.02;51.97;100307.63;1087623;54;19998;-79
2022/05/27 11:06:19;;;;;;;;;;;;;;;19.00;51.71;100309.66;1087710;54;19943;-80
2022/05/27 11:07:30;;;;;;;;;;;;;;;19.06;51.92;100305.34;1089184;39;20986;-80
2022/05/27 11:08:36;;;;;;;;;;;;;;;19.15;51.40;100304.19;1087762;54;19947;-79
2022/05/27 11:09:45;;;;;;;;;;;;;;;19.10;51.57;100311.22;1087818;54;19987;-82
2022/05/27 11:10:53;;;;;;;;;;;;;;;19.11;51.39;100311.00;1087762;54;19962;-80
2022/05/27 11:12:01;;;;;;;;;;;;;;;19.32;50.98;100309.31;1087520;54;19974;-80
2022/05/27 11:16:02;;;;;;;;;;;;;;;19.38;49.83;100304.97;1088314;54;19946;-80
2022/05/27 11:17:20;;;;;;;;;;;;;;;19.38;49.81;100308.53;1088513;46;19942;-79
2022/05/27 11:18:32;;;;;;;;;;;;;;;19.52;50.17;100289.66;1088279;54;19950;-79
2022/05/27 11:19:54;;;;;;;;;;;;;;;19.58;49.74;100300.56;1088397;54;19967;-78
2022/05/27 11:21:13;;;;;;;;;;;;;;;19.54;50.08;100296.53;1088006;54;19943;-79
2022/05/27 11:22:20;;;;;;;;;;;;;;;19.56;49.95;100296.34;1087997;54;19950;-81
2022/05/27 11:23:38;;;;;;;;;;;;;;;19.65;50.12;100300.56;1089174;46;19941;-79
2022/05/27 11:24:52;;;;;;;;;;;;;;;19.58;49.64;100300.56;1088002;54;19938;-80
2022/05/27 11:26:02;;;;;;;;;;;;;;;19.52;49.93;100298.63;1087948;54;19998;-79
2022/05/27 11:27:10;;;;;;;;;;;;;;;19.43;49.82;100297.09;1088035;54;19942;-78
2022/05/27 11:28:35;;;;;;;;;;;;;;;19.39;50.43;100304.78;1088045;54;19950;-78
2022/05/27 11:29:45;;;;;;;;;;;;;;;19.42;50.18;100296.25;1087907;54;19989;-80
2022/05/27 11:30:57;;;;;;;;;;;;;;;19.24;50.76;100298.63;1087001;54;20671;-79
2022/05/27 11:32:01;;;;;;;;;;;;;;;19.27;50.88;100300.94;1087988;54;19946;-80
2022/05/27 11:33:15;;;;;;;;;;;;;;;19.34;50.87;100299.13;1087552;54;19942;-80
2022/05/27 11:34:22;;;;;;;;;;;;;;;19.48;50.66;100294.63;1087837;54;19951;-79
2022/05/27 11:35:31;;;;;;;;;;;;;;;19.48;50.75;100290.03;1088791;39;20494;-80
2022/05/27 11:36:49;;;;;;;;;;;;;;;19.58;50.43;100299.69;1087437;54;19965;-80
2022/05/27 11:37:54;;;;;;;;;;;;;;;19.42;50.73;100296.25;1087544;54;19942;-80
2022/05/27 11:39:15;;;;;;;;;;;;;;;19.50;50.66;100287.16;1087532;54;19950;-78
2022/05/27 11:40:29;;;;;;;;;;;;;;;19.57;50.52;100284.47;1088031;46;19946;-80
2022/05/27 11:41:37;;;;;;;;;;;;;;;19.55;50.40;100281.13;1087487;54;19977;-78
2022/05/27 11:42:55;;;;;;;;;;;;;;;19.58;50.77;100280.72;1087868;54;19950;-80
2022/05/27 11:44:04;;;;;;;;;;;;;;;19.61;50.73;100281.16;1087886;54;19943;-80
2022/05/27 11:45:11;;;;;;;;;;;;;;;19.69;50.73;100276.63;1087517;54;20023;-80
2022/05/27 11:46:43;;;;;;;;;;;;;;;19.59;50.85;100285.09;1087656;54;19973;-79
2022/05/27 11:47:54;;;;;;;;;;;;;;;19.61;51.01;100280.34;1087728;46;19965;-79
2022/05/27 11:49:05;;;;;;;;;;;;;;;19.58;51.39;100272.59;1087446;54;19942;-81
2022/05/27 11:50:16;;;;;;;;;;;;;;;19.76;51.48;100281.03;1087338;54;19942;-79
2022/05/27 11:51:29;;;;;;;;;;;;;;;19.86;51.57;100274.44;1087189;54;19938;-81
2022/05/27 11:52:45;;;;;;;;;;;;;;;19.75;50.98;100282.06;1087807;54;19964;-81
2022/05/27 11:53:59;;;;;;;;;;;;;;;19.88;50.77;100275.09;1087696;54;20501;-81
2022/05/27 11:55:21;;;;;;;;;;;;;;;20.08;50.54;100278.75;1087808;54;19947;-79
2022/05/27 11:56:33;;;;;;;;;;;;;;;20.02;50.12;100273.28;1087701;54;19949;-81
2022/05/27 11:57:44;;;;;;;;;;;;;;;19.95;49.79;100275.94;1087719;54;19943;-81
2022/05/27 11:58:54;;;;;;;;;;;;;;;19.79;49.91;100275.22;1087383;54;19942;-80
2022/05/27 11:59:58;;;;;;;;;;;;;;;19.83;50.02;100281.09;1087504;54;19954;-78
2022/05/27 12:01:06;;;;;;;;;;;;;;;19.77;50.14;100282.72;1087549;54;20076;-79
2022/05/27 12:02:14;;;;;;;;;;;;;;;19.92;50.15;100274.50;1087867;54;19946;-82
2022/05/27 12:03:22;;;;;;;;;;;;;;;19.96;49.72;100283.06;1087991;54;20053;-80
2022/05/27 12:04:33;;;;;;;;;;;;;;;19.87;49.83;100276.13;1087881;54;19954;-80
2022/05/27 12:05:38;;;;;;;;;;;;;;;20.06;49.18;100280.81;1088169;54;19952;-80
2022/05/27 12:06:46;;;;;;;;;;;;;;;20.13;49.14;100280.00;1087755;54;19938;-80
2022/05/27 12:07:52;;;;;;;;;;;;;;;20.21;49.22;100279.84;1087766;54;19951;-80
2022/05/27 12:08:58;;;;;;;;;;;;;;;20.19;48.73;100273.78;1087846;54;20024;-79
2022/05/27 12:10:07;;;;;;;;;;;;;;;20.19;48.67;100274.59;1087609;54;19943;-82
2022/05/27 12:11:14;;;;;;;;;;;;;;;20.09;48.72;100275.00;1087501;54;19958;-82
2022/05/27 12:12:20;;;;;;;;;;;;;;;20.03;49.19;100277.66;1087823;54;19972;-79
2022/05/27 12:13:28;;;;;;;;;;;;;;;20.22;48.76;100278.78;1087490;54;19954;-79
2022/05/27 12:14:35;;;;;;;;;;;;;;;20.26;48.94;100271.91;1087131;54;19974;-80
2022/05/27 12:15:45;;;;;;;;;;;;;;;20.07;49.42;100274.34;1086706;54;20213;-81
2022/05/27 12:16:51;;;;;;;;;;;;;;;20.17;49.45;100268.53;1086918;54;21881;-82
2022/05/27 12:17:54;;;;;;;;;;;;;;;19.94;49.63;100260.72;1086359;54;20018;-79
2022/05/27 12:19:00;;;;;;;;;;;;;;;19.90;49.70;100270.31;1086869;54;19962;-81
2022/05/27 12:20:06;;;;;;;;;;;;;;;19.78;50.34;100268.13;1087003;54;19959;-80
2022/05/27 12:21:12;;;;;;;;;;;;;;;19.68;50.35;100269.53;1087380;54;19939;-81
2022/05/27 12:22:20;;;;;;;;;;;;;;;19.58;50.36;100272.59;1089529;46;19958;-80
2022/05/27 12:23:28;;;;;;;;;;;;;;;19.61;50.93;100277.63;1088287;54;19942;-82
2022/05/27 12:24:33;;;;;;;;;;;;;;;19.51;51.01;100274.41;1089815;39;20569;-82
2022/05/27 12:25:40;;;;;;;;;;;;;;;19.54;50.50;100282.16;1088158;54;19945;-81
2022/05/27 12:27:48;;;;;;;;;;;;;;;19.56;50.72;100282.78;1087735;54;19943;-79
2022/05/27 12:28:49;;;;;;;;;;;;;;;19.70;50.26;100286.41;1088334;54;19943;-82
2022/05/27 12:29:54;;;;;;;;;;;;;;;19.74;50.11;100272.25;1088318;54;19954;-83
2022/05/27 12:30:57;;;;;;;;;;;;;;;19.62;50.20;100273.88;1088186;54;19938;-83
2022/05/27 12:32:02;;;;;;;;;;;;;;;19.80;50.40;100271.47;1091228;46;19935;-80
2022/05/27 12:33:03;;;;;;;;;;;;;;;19.91;50.05;100278.25;1088421;54;19942;-81
2022/05/27 12:34:22;;;;;;;;;;;;;;;19.78;50.46;100275.44;1087919;54;20074;-82
2022/05/27 12:35:44;;;;;;;;;;;;;;;19.92;50.15;100274.50;1088646;46;19927;-81
2022/05/27 12:36:46;;;;;;;;;;;;;;;19.82;50.25;100270.44;1090307;39;20601;-81
2022/05/27 12:37:52;;;;;;;;;;;;;;;19.73;50.00;100273.31;1088347;54;20494;-80
2022/05/27 12:38:57;;;;;;;;;;;;;;;19.64;50.13;100274.53;1090252;46;19926;-81
2022/05/27 12:40:13;;;;;;;;;;;;;;;19.58;49.73;100276.16;1088280;54;19952;-80
2022/05/27 12:41:20;;;;;;;;;;;;;;;19.54;50.19;100274.03;1088038;54;19943;-81
2022/05/27 12:42:31;;;;;;;;;;;;;;;19.45;50.19;100279.63;1089447;46;19966;-82
2022/05/27 12:43:37;;;;;;;;;;;;;;;19.60;50.19;100271.34;1087916;54;19973;-83
2022/05/27 12:44:40;;;;;;;;;;;;;;;19.71;49.57;100275.38;1088138;54;19977;-82
2022/05/27 12:45:52;;;;;;;;;;;;;;;19.71;49.55;100278.09;1088070;54;20006;-80
2022/05/27 12:46:58;;;;;;;;;;;;;;;19.56;49.57;100277.38;1088093;54;19967;-81
2022/05/27 12:48:00;;;;;;;;;;;;;;;19.35;50.33;100284.53;1090060;46;19949;-80
2022/05/27 12:49:19;;;;;;;;;;;;;;;19.32;50.22;100272.19;1088074;54;19942;-81
2022/05/27 12:50:25;;;;;;;;;;;;;;;19.29;50.78;100286.16;1087779;54;19942;-81
2022/05/27 12:51:47;;;;;;;;;;;;;;;19.18;50.80;100275.84;1087847;54;19950;-82
2022/05/27 12:52:58;;;;;;;;;;;;;;;19.32;50.81;100280.31;1087219;54;20038;-81
2022/05/27 12:54:00;;;;;;;;;;;;;;;19.16;51.02;100283.31;1087689;54;19951;-82
2022/05/27 12:55:05;;;;;;;;;;;;;;;19.28;50.96;100275.50;1087582;54;20025;-81
2022/05/27 13:01:01;;;;;;;;;;;;;;;19.21;51.61;100282.75;1088306;54;19949;-85
2022/05/27 13:02:17;;;;;;;;;;;;;;;19.22;51.49;100277.16;1091950;46;20508;-85
2022/05/27 13:03:36;;;;;;;;;;;;;;;19.29;51.36;100269.03;1088205;54;19943;-85
2022/05/27 13:04:47;;;;;;;;;;;;;;;19.22;51.73;100276.28;1087884;54;19950;-83
2022/05/27 13:06:07;;;;;;;;;;;;;;;19.13;51.84;100273.72;1088194;54;19951;-85
2022/05/27 13:07:12;;;;;;;;;;;;;;;19.18;52.12;100279.38;1087844;54;19973;-85
2022/05/27 13:08:20;;;;;;;;;;;;;;;19.08;52.30;100273.47;1087831;54;20676;-86
2022/05/27 13:09:38;;;;;;;;;;;;;;;19.12;52.16;100279.34;1087705;54;19973;-85
2022/05/27 13:11:01;;;;;;;;;;;;;;;19.12;52.12;100272.03;1087830;54;19943;-87
2022/05/27 13:12:03;;;;;;;;;;;;;;;18.92;53.03;100281.84;1087798;54;19943;-85
2022/05/27 13:13:09;;;;;;;;;;;;;;;18.91;52.88;100288.28;1089443;39;20486;-82
2022/05/27 13:14:15;;;;;;;;;;;;;;;18.73;53.35;100276.03;1087750;54;19949;-85
2022/05/27 13:15:26;;;;;;;;;;;;;;;18.65;53.95;100278.88;1087790;54;19949;-84
2022/05/27 13:16:33;;;;;;;;;;;;;;;18.52;54.10;100282.28;1087809;54;19942;-85
2022/05/27 13:17:35;;;;;;;;;;;;;;;18.57;54.14;100277.09;1087893;54;19954;-84
2022/05/27 13:18:43;;;;;;;;;;;;;;;18.49;54.10;100283.50;1087817;54;19942;-86
2022/05/27 13:19:51;;;;;;;;;;;;;;;18.56;54.31;100283.56;1087832;54;19954;-87
2022/05/27 13:20:54;;;;;;;;;;;;;;;18.61;54.00;100293.84;1089936;39;20602;-84
2022/05/27 13:22:03;;;;;;;;;;;;;;;18.50;54.65;100296.00;1087883;54;19975;-85
2022/05/27 13:23:15;;;;;;;;;;;;;;;18.39;54.37;100286.50;1087570;54;19950;-81
2022/05/27 13:24:30;;;;;;;;;;;;;;;18.44;54.32;100283.22;1087661;54;19950;-83
2022/05/27 13:25:37;;;;;;;;;;;;;;;18.41;54.59;100283.63;1087592;54;19942;-81
2022/05/27 13:26:40;;;;;;;;;;;;;;;18.31;54.92;100281.19;1087687;54;20544;-83
2022/05/27 13:27:44;;;;;;;;;;;;;;;18.51;54.53;100280.59;1087700;54;19983;-81
2022/05/27 13:28:48;;;;;;;;;;;;;;;18.42;54.31;100285.28;1085379;54;20034;-80
2022/05/27 13:30:01;;;;;;;;;;;;;;;18.40;54.33;100292.75;1085299;54;19950;-80
2022/05/27 13:31:04;;;;;;;;;;;;;;;18.20;54.95;100281.69;1086935;54;19942;-83
2022/05/27 13:32:09;;;;;;;;;;;;;;;18.19;55.37;100288.13;1086856;54;19946;-84
2022/05/27 13:33:12;;;;;;;;;;;;;;;18.16;55.16;100283.94;1087549;54;19939;-83
2022/05/27 13:34:17;;;;;;;;;;;;;;;18.23;54.84;100287.56;1087368;54;19957;-81
2022/05/27 13:35:23;;;;;;;;;;;;;;;18.26;54.87;100278.25;1086953;54;19958;-85
2022/05/27 13:36:26;;;;;;;;;;;;;;;18.23;54.90;100279.44;1087034;54;19943;-85
2022/05/27 13:37:39;;;;;;;;;;;;;;;18.30;54.73;100281.41;1086408;54;19950;-82
2022/05/27 13:38:50;;;;;;;;;;;;;;;18.37;54.55;100276.91;1087085;54;19943;-84
2022/05/27 15:33:24;;;;;;;;;;;;;;;20.32;50.31;100219.53;1084056;54;19963;-77
2022/05/27 15:34:27;;;;;;;;;;;;;;;20.06;50.95;100210.28;1083807;54;19947;-78
2022/05/27 15:35:34;;;;;;;;;;;;;;;19.99;50.87;100209.41;1084217;54;19957;-76
2022/05/27 15:36:38;;;;;;;;;;;;;;;20.04;51.05;100211.53;1083975;54;19950;-77
2022/05/27 15:37:39;;;;;;;;;;;;;;;20.13;51.32;100209.44;1084204;54;19950;-78
2022/05/27 15:38:49;;;;;;;;;;;;;;;20.19;51.09;100216.78;1084905;54;19938;-78
2022/05/27 15:39:50;;;;;;;;;;;;;;;20.30;50.98;100221.63;1085021;54;19939;-78
2022/05/27 15:40:54;;;;;;;;;;;;;;;20.07;51.34;100213.84;1084582;54;19969;-78
2022/05/27 15:41:58;;;;;;;;;;;;;;;20.05;51.50;100214.03;1084902;54;19951;-78
2022/05/27 15:43:04;;;;;;;;;;;;;;;20.16;51.37;100209.03;1085560;54;20451;-78
2022/05/27 15:44:05;;;;;;;;;;;;;;;20.18;50.59;100209.69;1085107;54;19973;-78
2022/05/27 15:45:09;;;;;;;;;;;;;;;20.20;50.68;100210.31;1085413;39;20729;-78
2022/05/27 15:46:11;;;;;;;;;;;;;;;20.07;50.41;100200.25;1084183;54;19946;-78
2022/05/27 15:47:15;;;;;;;;;;;;;;;19.99;50.70;100204.00;1084214;54;19951;-78
2022/05/27 15:48:17;;;;;;;;;;;;;;;19.98;50.87;100207.75;1084244;54;19974;-78
2022/05/27 15:49:21;;;;;;;;;;;;;;;20.05;51.09;100192.31;1083888;54;19939;-79
2022/05/27 15:50:22;;;;;;;;;;;;;;;19.94;51.30;100206.47;1083729;39;20368;-78
2022/05/27 15:51:26;;;;;;;;;;;;;;;20.00;51.06;100200.25;1083671;54;19954;-79
2022/05/27 15:52:27;;;;;;;;;;;;;;;20.03;50.91;100205.25;1084448;54;19969;-78
2022/05/27 15:53:31;;;;;;;;;;;;;;;20.13;50.97;100204.88;1084135;54;19973;-77
2022/05/27 15:54:32;;;;;;;;;;;;;;;20.18;50.69;100198.81;1083698;54;19946;-79
2022/05/27 15:55:36;;;;;;;;;;;;;;;20.14;51.22;100202.97;1083890;54;20539;-78
2022/05/27 15:56:37;;;;;;;;;;;;;;;20.00;51.45;100199.38;1084540;39;20566;-78
2022/05/27 15:57:44;;;;;;;;;;;;;;;20.00;51.26;100199.38;1084540;39;20433;-78
2022/05/27 15:58:48;;;;;;;;;;;;;;;19.76;51.66;100198.84;1083701;54;19947;-78
2022/05/27 15:59:51;;;;;;;;;;;;;;;19.70;52.12;100196.94;1083907;54;19950;-78
2022/05/27 16:00:53;;;;;;;;;;;;;;;19.75;52.22;100187.16;1084351;54;19958;-78
2022/05/27 16:01:58;;;;;;;;;;;;;;;19.79;52.36;100198.44;1084277;54;20437;-78
2022/05/27 16:02:59;;;;;;;;;;;;;;;19.60;52.37;100197.31;1083929;54;19981;-78
2022/05/27 16:04:04;;;;;;;;;;;;;;;19.71;52.03;100191.31;1084709;39;20338;-77
2022/05/27 16:05:06;;;;;;;;;;;;;;;19.54;52.59;100190.00;1084191;54;19974;-78
2022/05/27 16:06:10;;;;;;;;;;;;;;;19.51;52.52;100195.81;1084174;54;20504;-76
2022/05/27 16:07:14;;;;;;;;;;;;;;;19.56;52.33;100190.59;1084275;39;20448;-77
2022/05/27 16:08:15;;;;;;;;;;;;;;;19.57;52.65;100189.56;1083365;54;20725;-77
2022/05/27 16:09:19;;;;;;;;;;;;;;;19.58;52.55;100196.66;1084056;54;19946;-76
2022/05/27 16:10:21;;;;;;;;;;;;;;;19.45;52.95;100198.28;1083706;54;19947;-78
2022/05/27 16:11:25;;;;;;;;;;;;;;;19.50;53.23;100197.69;1083429;54;19950;-77
2022/05/27 16:12:26;;;;;;;;;;;;;;;19.46;53.43;100183.66;1083587;54;19972;-77
2022/05/27 16:13:33;;;;;;;;;;;;;;;19.43;53.01;100189.50;1083633;54;19946;-76